KBAD/BAD METAR and TAF weather

Enter ICAO airport designator
Station Type Date Time Source
KBAD METAR 2021/09/20 04:56 UTC NOAA

KBAD 200456Z AUTO 00000KT 10SM CLR 23/22 A2990 RMK AO2 SLP126 T02250215


Station Type Date Time Source
KBAD Decoded METAR 2021/09/20 04:56 UTC NOAA

Barksdale Air Force Base, LA, United States (KBAD) 32-30N 093-40W
Sep 20, 2021 - 12:56 AM EDT / 2021.09.20 0456 UTC
Wind: Calm:0
Visibility: 10 mile(s):0
Sky conditions: clear
Temperature: 72.5 F (22.5 C)
Dew Point: 70.7 F (21.5 C)
Relative Humidity: 94%
Pressure (altimeter): 29.9 in. Hg (1012 hPa)
ob: KBAD 200456Z AUTO 00000KT 10SM CLR 23/22 A2990 RMK AO2 SLP126 T02250215
cycle: 5

Station Type Date Time Source
KBAD TAF 2021/09/19 20:15 UTC NOAA

TAF KBAD 192005Z 1920/2102 15005KT 9999 VCTS BKN020CB QNH2992INS
BECMG 2003/2004 18005KT 9999 NSW BKN050 QNH2991INS
BECMG 2012/2013 18005KT 9999 BKN010 QNH2990INS
BECMG 2015/2016 20010KT 9999 SCT050 QNH2989INS
BECMG 2100/2101 17005KT 9999 SKC QNH2982INS TX32/1920Z TN22/2012Z LAST NO
AMDS AFT 1922 NEXT 2012

Example: see airport list